sensor_id;sensor_type;location;lat;lon;timestamp;pressure;altitude;pressure_sealevel;temperature;humidity
29379;BME280;16362;47.202;15.258;2022-08-19T00:01:23;95636.47;;;15.83;100.00
29379;BME280;16362;47.202;15.258;2022-08-19T00:03:57;95636.25;;;15.78;100.00
29379;BME280;16362;47.202;15.258;2022-08-19T00:06:26;95646.63;;;15.75;100.00
29379;BME280;16362;47.202;15.258;2022-08-19T00:08:54;95643.94;;;15.75;100.00
29379;BME280;16362;47.202;15.258;2022-08-19T00:11:21;95646.69;;;15.68;100.00
29379;BME280;16362;47.202;15.258;2022-08-19T00:13:51;95649.38;;;15.68;100.00
29379;BME280;16362;47.202;15.258;2022-08-19T00:16:19;95653.97;;;15.68;100.00
29379;BME280;16362;47.202;15.258;2022-08-19T00:18:55;95653.78;;;15.62;100.00
29379;BME280;16362;47.202;15.258;2022-08-19T00:21:23;95661.84;;;15.62;100.00
29379;BME280;16362;47.202;15.258;2022-08-19T00:23:50;95658.38;;;15.62;100.00
29379;BME280;16362;47.202;15.258;2022-08-19T00:26:17;95662.47;;;15.64;100.00
29379;BME280;16362;47.202;15.258;2022-08-19T00:28:44;95668.91;;;15.63;100.00
29379;BME280;16362;47.202;15.258;2022-08-19T00:31:10;95663.69;;;15.69;100.00
29379;BME280;16362;47.202;15.258;2022-08-19T00:33:37;95654.34;;;15.71;100.00
29379;BME280;16362;47.202;15.258;2022-08-19T00:36:07;95636.72;;;15.75;100.00
29379;BME280;16362;47.202;15.258;2022-08-19T00:38:43;95637.91;;;15.79;100.00
29379;BME280;16362;47.202;15.258;2022-08-19T00:41:13;95659.84;;;15.83;100.00
29379;BME280;16362;47.202;15.258;2022-08-19T00:43:41;95655.28;;;15.83;100.00
29379;BME280;16362;47.202;15.258;2022-08-19T00:46:08;95649.28;;;15.81;100.00
29379;BME280;16362;47.202;15.258;2022-08-19T00:48:35;95658.78;;;15.84;100.00
29379;BME280;16362;47.202;15.258;2022-08-19T00:51:04;95651.34;;;15.86;100.00
29379;BME280;16362;47.202;15.258;2022-08-19T00:53:32;95656.09;;;15.84;100.00
29379;BME280;16362;47.202;15.258;2022-08-19T00:56:02;95675.53;;;15.86;100.00
29379;BME280;16362;47.202;15.258;2022-08-19T00:58:32;95685.91;;;15.82;100.00
29379;BME280;16362;47.202;15.258;2022-08-19T01:01:00;95685.50;;;15.79;100.00
29379;BME280;16362;47.202;15.258;2022-08-19T01:03:27;95680.56;;;15.76;100.00
29379;BME280;16362;47.202;15.258;2022-08-19T01:06:14;95686.19;;;15.74;100.00
29379;BME280;16362;47.202;15.258;2022-08-19T01:08:46;95681.59;;;15.75;100.00
29379;BME280;16362;47.202;15.258;2022-08-19T01:11:15;95689.25;;;15.78;100.00
29379;BME280;16362;47.202;15.258;2022-08-19T01:13:42;95693.78;;;15.77;100.00
29379;BME280;16362;47.202;15.258;2022-08-19T01:16:16;95705.81;;;15.75;100.00
29379;BME280;16362;47.202;15.258;2022-08-19T01:18:44;95717.47;;;15.69;100.00
29379;BME280;16362;47.202;15.258;2022-08-19T01:21:28;95713.75;;;15.70;100.00
29379;BME280;16362;47.202;15.258;2022-08-19T01:23:58;95708.91;;;15.78;100.00
29379;BME280;16362;47.202;15.258;2022-08-19T01:26:25;95697.94;;;15.80;100.00
29379;BME280;16362;47.202;15.258;2022-08-19T01:28:55;95687.13;;;15.87;100.00
29379;BME280;16362;47.202;15.258;2022-08-19T01:31:28;95676.75;;;15.90;100.00
29379;BME280;16362;47.202;15.258;2022-08-19T01:33:59;95666.34;;;15.94;100.00
29379;BME280;16362;47.202;15.258;2022-08-19T01:36:40;95672.09;;;15.97;100.00
29379;BME280;16362;47.202;15.258;2022-08-19T01:39:14;95672.94;;;15.98;100.00
29379;BME280;16362;47.202;15.258;2022-08-19T01:41:41;95669.66;;;15.96;100.00
29379;BME280;16362;47.202;15.258;2022-08-19T01:44:09;95669.88;;;15.94;100.00
29379;BME280;16362;47.202;15.258;2022-08-19T01:46:46;95645.88;;;15.93;100.00
29379;BME280;16362;47.202;15.258;2022-08-19T01:49:16;95628.31;;;15.90;100.00
29379;BME280;16362;47.202;15.258;2022-08-19T01:51:43;95616.34;;;15.86;100.00
29379;BME280;16362;47.202;15.258;2022-08-19T01:54:13;95604.97;;;15.84;100.00
29379;BME280;16362;47.202;15.258;2022-08-19T01:56:58;95596.69;;;15.86;100.00
29379;BME280;16362;47.202;15.258;2022-08-19T01:59:26;95600.56;;;15.71;100.00
29379;BME280;16362;47.202;15.258;2022-08-19T02:01:53;95596.22;;;15.70;100.00
29379;BME280;16362;47.202;15.258;2022-08-19T02:04:20;95614.44;;;15.68;100.00
29379;BME280;16362;47.202;15.258;2022-08-19T02:06:47;95618.19;;;15.67;100.00
29379;BME280;16362;47.202;15.258;2022-08-19T02:09:14;95632.00;;;15.71;100.00
29379;BME280;16362;47.202;15.258;2022-08-19T02:11:42;95631.56;;;15.74;100.00
29379;BME280;16362;47.202;15.258;2022-08-19T02:14:09;95642.56;;;15.72;100.00
29379;BME280;16362;47.202;15.258;2022-08-19T02:16:36;95637.16;;;15.72;100.00
29379;BME280;16362;47.202;15.258;2022-08-19T02:19:04;95625.56;;;15.72;100.00
29379;BME280;16362;47.202;15.258;2022-08-19T02:21:30;95618.13;;;15.74;100.00
29379;BME280;16362;47.202;15.258;2022-08-19T02:23:57;95615.44;;;15.74;100.00
29379;BME280;16362;47.202;15.258;2022-08-19T02:26:25;95607.34;;;15.74;100.00
29379;BME280;16362;47.202;15.258;2022-08-19T02:28:54;95594.34;;;15.71;100.00
29379;BME280;16362;47.202;15.258;2022-08-19T02:31:23;95589.56;;;15.73;100.00
29379;BME280;16362;47.202;15.258;2022-08-19T02:33:51;95578.66;;;15.68;100.00
29379;BME280;16362;47.202;15.258;2022-08-19T02:36:23;95578.00;;;15.72;100.00
29379;BME280;16362;47.202;15.258;2022-08-19T02:38:51;95584.19;;;15.73;100.00
29379;BME280;16362;47.202;15.258;2022-08-19T02:41:31;95585.81;;;15.80;100.00
29379;BME280;16362;47.202;15.258;2022-08-19T02:44:00;95590.94;;;15.82;100.00
29379;BME280;16362;47.202;15.258;2022-08-19T02:46:48;95590.72;;;15.83;100.00
29379;BME280;16362;47.202;15.258;2022-08-19T02:49:18;95591.09;;;15.87;100.00
29379;BME280;16362;47.202;15.258;2022-08-19T02:51:45;95593.91;;;15.92;100.00
29379;BME280;16362;47.202;15.258;2022-08-19T02:54:14;95584.97;;;15.98;100.00
29379;BME280;16362;47.202;15.258;2022-08-19T02:56:42;95589.06;;;16.01;100.00
29379;BME280;16362;47.202;15.258;2022-08-19T02:59:09;95589.66;;;16.03;100.00
29379;BME280;16362;47.202;15.258;2022-08-19T03:01:38;95591.91;;;16.06;100.00
29379;BME280;16362;47.202;15.258;2022-08-19T03:04:10;95597.31;;;16.06;100.00
29379;BME280;16362;47.202;15.258;2022-08-19T03:06:40;95587.81;;;16.04;100.00
29379;BME280;16362;47.202;15.258;2022-08-19T03:09:08;95597.50;;;16.05;100.00
29379;BME280;16362;47.202;15.258;2022-08-19T03:11:35;95602.16;;;15.97;100.00
29379;BME280;16362;47.202;15.258;2022-08-19T03:14:03;95591.84;;;15.94;100.00
29379;BME280;16362;47.202;15.258;2022-08-19T03:16:33;95584.81;;;15.93;100.00
29379;BME280;16362;47.202;15.258;2022-08-19T03:19:01;95583.84;;;15.88;100.00
29379;BME280;16362;47.202;15.258;2022-08-19T03:21:31;95571.88;;;15.83;100.00
29379;BME280;16362;47.202;15.258;2022-08-19T03:24:01;95582.03;;;15.81;100.00
29379;BME280;16362;47.202;15.258;2022-08-19T03:26:29;95582.03;;;15.81;100.00
29379;BME280;16362;47.202;15.258;2022-08-19T03:28:56;95591.34;;;15.79;100.00
29379;BME280;16362;47.202;15.258;2022-08-19T03:31:25;95594.25;;;15.77;100.00
29379;BME280;16362;47.202;15.258;2022-08-19T03:34:30;95608.97;;;15.75;100.00
29379;BME280;16362;47.202;15.258;2022-08-19T03:37:01;95611.66;;;15.75;100.00
29379;BME280;16362;47.202;15.258;2022-08-19T03:39:30;95621.38;;;15.76;100.00
29379;BME280;16362;47.202;15.258;2022-08-19T03:41:57;95612.28;;;15.77;100.00
29379;BME280;16362;47.202;15.258;2022-08-19T03:44:46;95605.47;;;15.74;100.00
29379;BME280;16362;47.202;15.258;2022-08-19T03:47:13;95630.31;;;15.76;100.00
29379;BME280;16362;47.202;15.258;2022-08-19T03:49:43;95661.75;;;15.76;100.00
29379;BME280;16362;47.202;15.258;2022-08-19T03:52:10;95677.06;;;15.75;100.00
29379;BME280;16362;47.202;15.258;2022-08-19T03:54:37;95745.13;;;15.76;100.00
29379;BME280;16362;47.202;15.258;2022-08-19T03:57:05;95760.13;;;15.65;100.00
29379;BME280;16362;47.202;15.258;2022-08-19T03:59:34;95758.94;;;15.54;100.00
29379;BME280;16362;47.202;15.258;2022-08-19T04:02:05;95752.44;;;15.69;100.00
29379;BME280;16362;47.202;15.258;2022-08-19T04:04:36;95761.31;;;15.69;100.00
29379;BME280;16362;47.202;15.258;2022-08-19T04:07:04;95739.31;;;15.79;100.00
29379;BME280;16362;47.202;15.258;2022-08-19T04:09:30;95721.88;;;15.88;100.00
29379;BME280;16362;47.202;15.258;2022-08-19T04:11:58;95709.91;;;15.84;100.00
29379;BME280;16362;47.202;15.258;2022-08-19T04:14:28;95697.88;;;15.87;100.00
29379;BME280;16362;47.202;15.258;2022-08-19T04:16:59;95691.47;;;15.88;100.00
29379;BME280;16362;47.202;15.258;2022-08-19T04:19:28;95673.03;;;15.91;100.00
29379;BME280;16362;47.202;15.258;2022-08-19T04:21:55;95670.47;;;15.96;100.00
29379;BME280;16362;47.202;15.258;2022-08-19T04:24:22;95665.06;;;15.96;100.00
29379;BME280;16362;47.202;15.258;2022-08-19T04:26:50;95684.06;;;16.02;100.00
29379;BME280;16362;47.202;15.258;2022-08-19T04:29:19;95682.28;;;16.14;100.00
29379;BME280;16362;47.202;15.258;2022-08-19T04:31:48;95687.44;;;16.15;100.00
29379;BME280;16362;47.202;15.258;2022-08-19T04:34:17;95694.25;;;16.18;100.00
29379;BME280;16362;47.202;15.258;2022-08-19T04:36:44;95699.84;;;16.16;100.00
29379;BME280;16362;47.202;15.258;2022-08-19T04:39:14;95696.94;;;16.18;100.00
29379;BME280;16362;47.202;15.258;2022-08-19T04:41:42;95695.00;;;16.25;100.00
29379;BME280;16362;47.202;15.258;2022-08-19T04:44:27;95701.22;;;16.26;100.00
29379;BME280;16362;47.202;15.258;2022-08-19T04:46:59;95684.16;;;16.32;100.00
29379;BME280;16362;47.202;15.258;2022-08-19T04:49:27;95682.44;;;16.38;100.00
29379;BME280;16362;47.202;15.258;2022-08-19T04:51:54;95668.53;;;16.41;100.00
29379;BME280;16362;47.202;15.258;2022-08-19T04:54:23;95661.41;;;16.46;100.00
29379;BME280;16362;47.202;15.258;2022-08-19T04:57:05;95672.78;;;16.48;100.00
29379;BME280;16362;47.202;15.258;2022-08-19T04:59:34;95671.50;;;16.51;100.00
29379;BME280;16362;47.202;15.258;2022-08-19T05:02:02;95672.09;;;16.53;100.00
29379;BME280;16362;47.202;15.258;2022-08-19T05:04:28;95667.91;;;16.57;100.00
29379;BME280;16362;47.202;15.258;2022-08-19T05:06:59;95659.25;;;16.55;100.00
29379;BME280;16362;47.202;15.258;2022-08-19T05:09:28;95659.16;;;16.62;100.00
29379;BME280;16362;47.202;15.258;2022-08-19T05:12:16;95694.59;;;16.59;100.00
29379;BME280;16362;47.202;15.258;2022-08-19T05:14:44;95690.19;;;16.64;100.00
29379;BME280;16362;47.202;15.258;2022-08-19T05:17:13;95702.59;;;16.65;100.00
29379;BME280;16362;47.202;15.258;2022-08-19T05:20:00;95699.00;;;16.72;100.00
29379;BME280;16362;47.202;15.258;2022-08-19T05:22:46;95699.00;;;16.72;100.00
29379;BME280;16362;47.202;15.258;2022-08-19T05:25:18;95706.19;;;16.78;100.00
29379;BME280;16362;47.202;15.258;2022-08-19T05:27:46;95714.06;;;16.79;100.00
29379;BME280;16362;47.202;15.258;2022-08-19T05:30:14;95710.66;;;16.84;100.00
29379;BME280;16362;47.202;15.258;2022-08-19T05:32:41;95716.44;;;16.88;100.00
29379;BME280;16362;47.202;15.258;2022-08-19T05:35:09;95727.59;;;16.91;100.00
29379;BME280;16362;47.202;15.258;2022-08-19T05:37:36;95735.00;;;16.96;100.00
29379;BME280;16362;47.202;15.258;2022-08-19T05:40:04;95735.50;;;17.05;100.00
29379;BME280;16362;47.202;15.258;2022-08-19T05:42:31;95723.22;;;17.09;100.00
29379;BME280;16362;47.202;15.258;2022-08-19T05:44:58;95726.19;;;17.19;100.00
29379;BME280;16362;47.202;15.258;2022-08-19T05:47:24;95726.69;;;17.28;100.00
29379;BME280;16362;47.202;15.258;2022-08-19T05:49:51;95727.53;;;17.40;100.00
29379;BME280;16362;47.202;15.258;2022-08-19T05:52:19;95728.16;;;17.54;100.00
29379;BME280;16362;47.202;15.258;2022-08-19T05:54:52;95723.97;;;17.70;100.00
29379;BME280;16362;47.202;15.258;2022-08-19T05:57:22;95726.53;;;17.89;100.00
29379;BME280;16362;47.202;15.258;2022-08-19T05:59:50;95719.66;;;18.05;100.00
29379;BME280;16362;47.202;15.258;2022-08-19T06:02:28;95727.63;;;18.11;100.00
29379;BME280;16362;47.202;15.258;2022-08-19T06:04:55;95737.75;;;18.16;100.00
29379;BME280;16362;47.202;15.258;2022-08-19T06:07:22;95729.41;;;18.17;100.00
29379;BME280;16362;47.202;15.258;2022-08-19T06:09:49;95744.78;;;18.17;100.00
29379;BME280;16362;47.202;15.258;2022-08-19T06:12:31;95745.38;;;18.19;100.00
29379;BME280;16362;47.202;15.258;2022-08-19T06:15:05;95727.88;;;18.22;100.00
29379;BME280;16362;47.202;15.258;2022-08-19T06:17:33;95729.84;;;18.26;100.00
29379;BME280;16362;47.202;15.258;2022-08-19T06:20:04;95718.69;;;18.34;100.00
29379;BME280;16362;47.202;15.258;2022-08-19T06:22:31;95702.34;;;18.53;100.00
29379;BME280;16362;47.202;15.258;2022-08-19T06:24:57;95707.56;;;18.83;100.00
29379;BME280;16362;47.202;15.258;2022-08-19T06:27:24;95710.63;;;19.16;100.00
29379;BME280;16362;47.202;15.258;2022-08-19T06:29:51;95712.63;;;19.38;100.00
29379;BME280;16362;47.202;15.258;2022-08-19T06:32:18;95714.44;;;19.49;100.00
29379;BME280;16362;47.202;15.258;2022-08-19T06:34:46;95704.47;;;19.66;100.00
29379;BME280;16362;47.202;15.258;2022-08-19T06:37:13;95688.72;;;19.80;100.00
29379;BME280;16362;47.202;15.258;2022-08-19T06:39:43;95687.06;;;19.96;100.00
29379;BME280;16362;47.202;15.258;2022-08-19T06:42:11;95687.88;;;20.14;100.00
29379;BME280;16362;47.202;15.258;2022-08-19T06:44:45;95686.84;;;20.20;100.00
29379;BME280;16362;47.202;15.258;2022-08-19T06:47:20;95691.78;;;20.23;100.00
29379;BME280;16362;47.202;15.258;2022-08-19T06:49:53;95694.25;;;20.25;100.00
29379;BME280;16362;47.202;15.258;2022-08-19T06:52:26;95700.56;;;20.30;100.00
29379;BME280;16362;47.202;15.258;2022-08-19T06:54:53;95697.50;;;20.27;100.00
29379;BME280;16362;47.202;15.258;2022-08-19T06:57:26;95701.00;;;20.22;100.00
29379;BME280;16362;47.202;15.258;2022-08-19T06:59:53;95711.75;;;20.17;100.00
29379;BME280;16362;47.202;15.258;2022-08-19T07:02:22;95716.84;;;20.13;100.00
29379;BME280;16362;47.202;15.258;2022-08-19T07:04:52;95720.81;;;20.06;100.00
29379;BME280;16362;47.202;15.258;2022-08-19T07:07:20;95722.09;;;20.03;100.00
29379;BME280;16362;47.202;15.258;2022-08-19T07:09:49;95736.72;;;20.02;100.00
29379;BME280;16362;47.202;15.258;2022-08-19T07:12:24;95745.09;;;20.00;100.00
29379;BME280;16362;47.202;15.258;2022-08-19T07:14:51;95750.50;;;20.00;100.00
29379;BME280;16362;47.202;15.258;2022-08-19T07:17:19;95760.69;;;19.93;100.00
29379;BME280;16362;47.202;15.258;2022-08-19T07:19:47;95774.63;;;19.85;100.00
29379;BME280;16362;47.202;15.258;2022-08-19T07:22:14;95767.00;;;19.82;100.00
29379;BME280;16362;47.202;15.258;2022-08-19T07:24:42;95762.84;;;19.79;100.00
29379;BME280;16362;47.202;15.258;2022-08-19T07:27:16;95752.53;;;19.76;100.00
29379;BME280;16362;47.202;15.258;2022-08-19T07:29:49;95758.75;;;19.77;100.00
29379;BME280;16362;47.202;15.258;2022-08-19T07:32:23;95760.28;;;19.73;100.00
29379;BME280;16362;47.202;15.258;2022-08-19T07:34:53;95761.69;;;19.75;100.00
29379;BME280;16362;47.202;15.258;2022-08-19T07:37:22;95761.22;;;19.78;100.00
29379;BME280;16362;47.202;15.258;2022-08-19T07:39:48;95767.00;;;19.82;100.00
29379;BME280;16362;47.202;15.258;2022-08-19T07:42:15;95768.97;;;19.87;100.00
29379;BME280;16362;47.202;15.258;2022-08-19T07:44:43;95751.47;;;19.94;100.00
29379;BME280;16362;47.202;15.258;2022-08-19T07:47:16;95753.22;;;20.00;100.00
29379;BME280;16362;47.202;15.258;2022-08-19T07:50:06;95756.97;;;19.99;100.00
29379;BME280;16362;47.202;15.258;2022-08-19T07:52:34;95749.44;;;20.01;100.00
29379;BME280;16362;47.202;15.258;2022-08-19T07:55:04;95767.41;;;20.08;100.00
29379;BME280;16362;47.202;15.258;2022-08-19T07:57:30;95772.81;;;20.08;100.00
29379;BME280;16362;47.202;15.258;2022-08-19T07:59:58;95765.19;;;20.05;100.00
29379;BME280;16362;47.202;15.258;2022-08-19T08:02:25;95755.75;;;20.07;100.00
29379;BME280;16362;47.202;15.258;2022-08-19T08:04:52;95757.66;;;20.07;100.00
29379;BME280;16362;47.202;15.258;2022-08-19T08:07:38;95756.50;;;20.02;100.00
29379;BME280;16362;47.202;15.258;2022-08-19T08:10:24;95761.25;;;19.95;100.00
29379;BME280;16362;47.202;15.258;2022-08-19T08:12:51;95763.41;;;19.93;100.00
29379;BME280;16362;47.202;15.258;2022-08-19T08:15:38;95779.16;;;19.96;100.00
29379;BME280;16362;47.202;15.258;2022-08-19T08:18:10;95789.38;;;19.94;100.00
29379;BME280;16362;47.202;15.258;2022-08-19T08:20:37;95786.84;;;19.88;100.00
29379;BME280;16362;47.202;15.258;2022-08-19T08:23:04;95751.34;;;19.84;100.00
29379;BME280;16362;47.202;15.258;2022-08-19T08:25:49;95751.88;;;19.86;100.00
29379;BME280;16362;47.202;15.258;2022-08-19T08:28:17;95766.41;;;19.80;100.00
29379;BME280;16362;47.202;15.258;2022-08-19T08:30:45;95775.69;;;19.84;100.00
29379;BME280;16362;47.202;15.258;2022-08-19T08:33:20;95753.81;;;19.74;100.00
29379;BME280;16362;47.202;15.258;2022-08-19T08:36:10;95727.06;;;19.60;100.00
29379;BME280;16362;47.202;15.258;2022-08-19T08:38:38;95750.69;;;19.48;100.00
29379;BME280;16362;47.202;15.258;2022-08-19T08:43:48;95737.91;;;19.43;100.00
29379;BME280;16362;47.202;15.258;2022-08-19T08:46:21;95721.91;;;19.42;100.00
29379;BME280;16362;47.202;15.258;2022-08-19T08:52:25;95709.72;;;19.73;100.00
29379;BME280;16362;47.202;15.258;2022-08-19T08:55:00;95705.63;;;19.88;100.00
29379;BME280;16362;47.202;15.258;2022-08-19T09:00:27;95698.53;;;20.21;100.00
29379;BME280;16362;47.202;15.258;2022-08-19T09:02:56;95709.34;;;20.60;100.00
29379;BME280;16362;47.202;15.258;2022-08-19T09:05:33;95707.97;;;21.01;100.00
29379;BME280;16362;47.202;15.258;2022-08-19T09:10:53;95698.97;;;21.50;100.00
29379;BME280;16362;47.202;15.258;2022-08-19T09:16:12;95728.38;;;21.31;100.00
29379;BME280;16362;47.202;15.258;2022-08-19T09:18:40;95732.28;;;21.18;100.00
29379;BME280;16362;47.202;15.258;2022-08-19T09:21:08;95743.25;;;21.01;100.00
29379;BME280;16362;47.202;15.258;2022-08-19T09:23:36;95754.91;;;21.02;100.00
29379;BME280;16362;47.202;15.258;2022-08-19T09:26:17;95745.38;;;20.99;100.00
29379;BME280;16362;47.202;15.258;2022-08-19T09:28:47;95731.25;;;20.97;100.00
29379;BME280;16362;47.202;15.258;2022-08-19T09:31:22;95734.59;;;21.05;100.00
29379;BME280;16362;47.202;15.258;2022-08-19T09:33:49;95733.25;;;21.07;100.00
29379;BME280;16362;47.202;15.258;2022-08-19T09:36:20;95713.56;;;21.17;100.00
29379;BME280;16362;47.202;15.258;2022-08-19T09:39:02;95684.69;;;21.33;100.00
29379;BME280;16362;47.202;15.258;2022-08-19T09:41:41;95663.53;;;21.62;100.00
29379;BME280;16362;47.202;15.258;2022-08-19T09:44:14;95658.78;;;21.80;100.00
29379;BME280;16362;47.202;15.258;2022-08-19T09:46:41;95657.41;;;21.82;100.00
29379;BME280;16362;47.202;15.258;2022-08-19T09:49:08;95655.81;;;21.81;100.00
29379;BME280;16362;47.202;15.258;2022-08-19T09:51:35;95666.94;;;21.80;100.00
29379;BME280;16362;47.202;15.258;2022-08-19T09:54:04;95678.56;;;21.75;100.00
29379;BME280;16362;47.202;15.258;2022-08-19T09:56:32;95687.19;;;21.67;97.53
29379;BME280;16362;47.202;15.258;2022-08-19T09:59:00;95688.03;;;21.73;100.00
29379;BME280;16362;47.202;15.258;2022-08-19T10:01:30;95690.00;;;21.77;100.00
29379;BME280;16362;47.202;15.258;2022-08-19T10:03:59;95681.84;;;21.82;100.00
29379;BME280;16362;47.202;15.258;2022-08-19T10:06:28;95701.41;;;21.79;99.84
29379;BME280;16362;47.202;15.258;2022-08-19T10:09:14;95720.75;;;21.88;94.82
29379;BME280;16362;47.202;15.258;2022-08-19T10:11:43;95727.00;;;21.89;100.00
29379;BME280;16362;47.202;15.258;2022-08-19T10:14:19;95743.50;;;21.82;100.00
29379;BME280;16362;47.202;15.258;2022-08-19T10:16:49;95745.69;;;21.80;100.00
29379;BME280;16362;47.202;15.258;2022-08-19T10:19:18;95734.47;;;21.71;100.00
29379;BME280;16362;47.202;15.258;2022-08-19T10:21:52;95718.38;;;21.64;100.00
29379;BME280;16362;47.202;15.258;2022-08-19T10:24:19;95723.34;;;21.73;100.00
29379;BME280;16362;47.202;15.258;2022-08-19T10:26:47;95718.63;;;21.63;100.00
29379;BME280;16362;47.202;15.258;2022-08-19T10:29:25;95734.25;;;21.50;100.00
29379;BME280;16362;47.202;15.258;2022-08-19T10:32:04;95742.66;;;21.49;100.00
29379;BME280;16362;47.202;15.258;2022-08-19T10:34:39;95719.38;;;21.53;100.00
29379;BME280;16362;47.202;15.258;2022-08-19T10:37:15;95713.22;;;21.63;100.00
29379;BME280;16362;47.202;15.258;2022-08-19T10:39:56;95742.81;;;21.64;100.00
29379;BME280;16362;47.202;15.258;2022-08-19T10:42:23;95744.16;;;21.62;100.00
29379;BME280;16362;47.202;15.258;2022-08-19T10:44:50;95734.66;;;21.64;100.00
29379;BME280;16362;47.202;15.258;2022-08-19T10:47:17;95730.72;;;21.77;100.00
29379;BME280;16362;47.202;15.258;2022-08-19T10:49:52;95734.56;;;21.86;100.00
29379;BME280;16362;47.202;15.258;2022-08-19T10:52:40;95743.03;;;21.90;100.00
29379;BME280;16362;47.202;15.258;2022-08-19T10:55:17;95724.59;;;21.97;100.00
29379;BME280;16362;47.202;15.258;2022-08-19T10:58:03;95700.00;;;22.14;100.00
29379;BME280;16362;47.202;15.258;2022-08-19T11:00:30;95706.44;;;22.35;100.00
29379;BME280;16362;47.202;15.258;2022-08-19T11:02:57;95710.38;;;22.60;97.46
29379;BME280;16362;47.202;15.258;2022-08-19T11:05:24;95700.59;;;22.64;95.18
29379;BME280;16362;47.202;15.258;2022-08-19T11:07:51;95704.75;;;22.77;92.61
29379;BME280;16362;47.202;15.258;2022-08-19T11:10:18;95694.66;;;22.78;89.98
29379;BME280;16362;47.202;15.258;2022-08-19T11:12:47;95698.50;;;22.87;87.49
29379;BME280;16362;47.202;15.258;2022-08-19T11:15:15;95689.53;;;22.81;89.31
29379;BME280;16362;47.202;15.258;2022-08-19T11:17:42;95700.66;;;22.85;89.93
29379;BME280;16362;47.202;15.258;2022-08-19T11:20:17;95706.16;;;22.95;94.12
29379;BME280;16362;47.202;15.258;2022-08-19T11:22:44;95714.34;;;23.05;93.84
29379;BME280;16362;47.202;15.258;2022-08-19T11:25:13;95756.06;;;23.27;89.88
29379;BME280;16362;47.202;15.258;2022-08-19T11:27:40;95760.78;;;23.57;88.29
29379;BME280;16362;47.202;15.258;2022-08-19T11:30:11;95751.00;;;23.77;78.67
29379;BME280;16362;47.202;15.258;2022-08-19T11:32:42;95737.66;;;24.16;81.63
29379;BME280;16362;47.202;15.258;2022-08-19T11:35:15;95727.06;;;23.99;77.13
29379;BME280;16362;47.202;15.258;2022-08-19T11:37:42;95724.31;;;23.79;81.22
29379;BME280;16362;47.202;15.258;2022-08-19T11:40:09;95727.28;;;23.57;87.12
29379;BME280;16362;47.202;15.258;2022-08-19T11:42:36;95731.34;;;23.38;90.09
29379;BME280;16362;47.202;15.258;2022-08-19T11:45:23;95731.84;;;23.25;83.28
29379;BME280;16362;47.202;15.258;2022-08-19T11:47:50;95728.03;;;23.21;85.51
29379;BME280;16362;47.202;15.258;2022-08-19T11:50:17;95723.41;;;23.21;84.63
29379;BME280;16362;47.202;15.258;2022-08-19T11:52:45;95722.59;;;23.26;84.18
29379;BME280;16362;47.202;15.258;2022-08-19T11:55:13;95712.31;;;23.64;82.02
29379;BME280;16362;47.202;15.258;2022-08-19T11:57:41;95700.59;;;23.74;81.46
29379;BME280;16362;47.202;15.258;2022-08-19T12:00:10;95704.94;;;23.85;79.66
29379;BME280;16362;47.202;15.258;2022-08-19T12:02:39;95710.16;;;23.87;81.75
29379;BME280;16362;47.202;15.258;2022-08-19T12:05:07;95704.97;;;23.96;79.46
29379;BME280;16362;47.202;15.258;2022-08-19T12:07:38;95699.25;;;24.08;82.52
29379;BME280;16362;47.202;15.258;2022-08-19T12:10:07;95683.72;;;24.08;76.05
29379;BME280;16362;47.202;15.258;2022-08-19T12:12:34;95683.97;;;24.17;77.49
29379;BME280;16362;47.202;15.258;2022-08-19T12:15:01;95687.50;;;24.12;75.73
29379;BME280;16362;47.202;15.258;2022-08-19T12:17:28;95677.13;;;24.30;75.84
29379;BME280;16362;47.202;15.258;2022-08-19T12:19:57;95665.63;;;24.43;75.63
29379;BME280;16362;47.202;15.258;2022-08-19T12:22:24;95659.38;;;24.48;74.21
29379;BME280;16362;47.202;15.258;2022-08-19T12:24:50;95660.38;;;24.73;72.83
29379;BME280;16362;47.202;15.258;2022-08-19T12:27:19;95658.75;;;24.66;74.46
29379;BME280;16362;47.202;15.258;2022-08-19T12:30:08;95645.41;;;24.65;73.97
29379;BME280;16362;47.202;15.258;2022-08-19T12:32:35;95658.19;;;24.75;75.04
29379;BME280;16362;47.202;15.258;2022-08-19T12:35:02;95671.47;;;24.97;70.72
29379;BME280;16362;47.202;15.258;2022-08-19T12:37:29;95664.19;;;24.71;71.83
29379;BME280;16362;47.202;15.258;2022-08-19T12:39:58;95656.59;;;24.68;74.01
29379;BME280;16362;47.202;15.258;2022-08-19T12:42:25;95666.09;;;24.76;74.95
29379;BME280;16362;47.202;15.258;2022-08-19T12:44:52;95665.00;;;24.77;73.96
29379;BME280;16362;47.202;15.258;2022-08-19T12:47:19;95668.50;;;24.83;72.44
29379;BME280;16362;47.202;15.258;2022-08-19T12:49:48;95672.38;;;24.71;75.80
29379;BME280;16362;47.202;15.258;2022-08-19T12:52:25;95681.91;;;24.79;73.97
29379;BME280;16362;47.202;15.258;2022-08-19T12:54:55;95675.09;;;24.82;75.31
29379;BME280;16362;47.202;15.258;2022-08-19T12:57:24;95669.66;;;24.71;73.57
29379;BME280;16362;47.202;15.258;2022-08-19T13:00:02;95656.31;;;24.70;74.63
29379;BME280;16362;47.202;15.258;2022-08-19T13:02:31;95662.59;;;24.60;79.36
29379;BME280;16362;47.202;15.258;2022-08-19T13:05:05;95660.94;;;24.69;71.73
29379;BME280;16362;47.202;15.258;2022-08-19T13:07:35;95651.13;;;24.58;71.56
29379;BME280;16362;47.202;15.258;2022-08-19T13:10:03;95648.69;;;24.62;70.33
29379;BME280;16362;47.202;15.258;2022-08-19T13:12:30;95653.34;;;24.56;71.21
29379;BME280;16362;47.202;15.258;2022-08-19T13:14:56;95657.97;;;24.50;70.93